Pierre, SD

8:41 AM CDT on July 28, 2014 (GMT -0500)
2 miles north of airport (KSDPIERR1) Elev 1818 ft | 44.41 °N, 100.30 °W | Change Station

Current weather conditions updated 30 seconds ago

Clear
Clear
58.4 °F
Feels Like 58.4 °F
N
1.0
Wind Variable Wind from West
Gusts 4.0 mph

Today is forecast to be nearly the same temperature as yesterday.

Today
High -- | Low -- °F
--% Chance of Precip.
Yesterday
High -- | Low -- °F
Precip. -- in
6:23 AM 9:10 PM
New Moon, 2% visible
Pressure 30.31 in
Visibility 9.0 miles
Clouds Clear
Dew Point 58 °F
Humidity 100%
Rainfall 0.00 in
Snow Depth Not available.
UV 1 out of 12
Pollen 6.60 out of 12
Air Quality Not available.
Flu Activity Not available.
METAR KPIR 281253Z AUTO 00000KT 9SM CLR 13/13 A3032 RMK AO2 SLP262 T01330128

More Conditions Fewer Conditions

Pressure 30.31 in
Visibility 9.0 miles
Clouds Clear
Dew Point 58 °F
Humidity 100%
Rainfall 0.00 in
Snow Depth Not available.
UV 1 out of 12
Pollen 6.60 out of 12
Air Quality Not available.
Flu Activity Not available.
METAR KPIR 281253Z AUTO 00000KT 9SM CLR 13/13 A3032 RMK AO2 SLP262 T01330128

More Conditions Fewer Conditions

10-Day Weather Forecast

Almanac

Astronomy

Jul. 28, 2014 Rise Set
Actual Time 6:23 AM CDT 9:10 PM CDT
Civil Twilight 5:49 AM CDT 9:44 PM CDT
Nautical Twilight 5:06 AM CDT 10:26 PM CDT
Astronomical Twilight 4:16 AM CDT 11:16 PM CDT
Moon 8:12 AM CDT 9:45 PM CDT
Length of Visible Light 15h 54m
Length of Day
14h 47m
Tomorrow will be 2m 14s shorter.
New Moon, 2% of the Moon is Illuminated
Today
New Moon
Aug 3
First Quarter
Aug 10
Full
Aug 17
Last Quarter
Aug 25
New

Today's Extremes

State Highs State Lows

Community

WunderPhotos

Upload Photos

1,738,329 photos uploaded!

Nearby

Snow Depth

Station Depth Elevation
North Rapid Creek 0 in 6130 ft
Blind Park 1 in 6890 ft

Earthquake Activity

City Distance Mag. Time & Date
No recent earthquake activity has been reported nearby.
Minimum magnitude displayed is 2.5.

Coastal Water Temperatures

Place Temperature
No Stations Reporting

Nearby Weather Stations

Station Location Temp. Dew Point Humidity Wind Precip. Elev Updated Type
2 miles north of airport, Pierre, SD 58.4 °F 58 °F 100% West  at  1.0 mph 0.00 in / hr 1818 ft 8:41 AM CDT Rapid Fire
Near Jefferson School, Pierre, SD 57.2 °F 54 °F 88% NE  at  2.7 mph - / hr 1588 ft 8:35 AM CDT Normal
East of Hospital; Pierre, SD, Pierre, SD 58.6 °F 55 °F 87% West  at  0.0 mph 0.00 in / hr 1430 ft 8:40 AM CDT Normal
HADS MISSOURI RIVER AT PIERRE SD, Fort Pierre, SD 54 °F - - North  at  - 0.00 in / hr 1414 ft 6:15 AM MDT MADIS
HADS BAD RIVER NEAR FORT PIERRE SD, 50 °F - - North  at  - 0.00 in / hr 1430 ft 7:30 AM EDT MADIS
RAWS FORT PIERRE SD, Vivian, SD 60 °F 54 °F 82% NW  at  4 mph 0.00 in / hr 2273 ft 7:59 AM CDT MADIS

Show More Stations Show Fewer Stations